Time;durP1;ratioP1;P1;durP2;ratioP2;P2;SDS_P1;SDS_P2;PMS_P1;PMS_P2;Temp;Humidity;BMP_temperature;BMP_pressure;BME280_temperature;BME280_humidity;BME280_pressure;Samples;Min_cycle;Max_cycle;Signal;HPM_P1;HPM_P2
2023/08/13 00:01:00;;;;;;;2.42;1.13;;;15.80;99.90;;;;;;5074666;28;20558;-74
2023/08/13 00:03:31;;;;;;;4.47;1.40;;;15.80;99.90;;;;;;5073067;28;20910;-76
2023/08/13 00:06:02;;;;;;;26.80;18.65;;;15.80;99.90;;;;;;5068997;28;20182;-78
2023/08/13 00:08:33;;;;;;;31.63;20.23;;;15.90;99.90;;;;;;5060382;28;20194;-79
2023/08/13 00:11:11;;;;;;;15.00;10.52;;;15.90;99.90;;;;;;5061171;28;20297;-78
2023/08/13 00:13:42;;;;;;;12.05;6.53;;;16.00;99.90;;;;;;5072749;28;20229;-83
2023/08/13 00:16:13;;;;;;;6.72;4.07;;;16.10;99.90;;;;;;5073521;28;20192;-77
2023/08/13 00:18:44;;;;;;;6.00;1.88;;;16.30;99.90;;;;;;5054655;28;20261;-78
2023/08/13 00:21:15;;;;;;;4.68;1.70;;;16.30;99.90;;;;;;5054299;28;20327;-86
2023/08/13 00:23:46;;;;;;;3.25;1.75;;;16.40;99.90;;;;;;5053777;28;20198;-82
2023/08/13 00:26:19;;;;;;;2.85;1.27;;;16.40;99.90;;;;;;5054999;28;20221;-78
2023/08/13 00:28:50;;;;;;;2.05;1.08;;;16.40;99.90;;;;;;5055670;28;20208;-82
2023/08/13 00:31:21;;;;;;;3.03;1.30;;;16.50;99.90;;;;;;5064860;28;20201;-87
2023/08/13 00:33:51;;;;;;;2.28;0.93;;;16.60;99.90;;;;;;5059488;28;20202;-82
2023/08/13 00:36:22;;;;;;;2.22;1.00;;;16.60;99.90;;;;;;5060120;28;20192;-75
2023/08/13 00:38:53;;;;;;;2.50;0.85;;;16.60;99.90;;;;;;5072128;28;20649;-76
2023/08/13 00:41:25;;;;;;;2.28;0.82;;;16.70;99.90;;;;;;5070571;28;20213;-76
2023/08/13 00:43:56;;;;;;;1.77;0.82;;;16.80;99.90;;;;;;5065236;28;20554;-76
2023/08/13 00:46:27;;;;;;;3.47;1.25;;;17.00;99.90;;;;;;5055711;28;20629;-73
2023/08/13 00:49:01;;;;;;;2.10;0.90;;;17.30;99.90;;;;;;5057750;28;20195;-71
2023/08/13 00:51:32;;;;;;;3.40;0.80;;;17.60;99.90;;;;;;5064564;28;20232;-74
2023/08/13 00:54:03;;;;;;;1.23;0.70;;;17.70;99.90;;;;;;5053707;28;20563;-74
2023/08/13 00:56:36;;;;;;;2.13;0.82;;;17.70;99.90;;;;;;5053455;28;20197;-78
2023/08/13 00:59:07;;;;;;;1.90;1.00;;;17.80;99.90;;;;;;5054119;28;20229;-81
2023/08/13 01:01:37;;;;;;;3.63;0.90;;;17.70;99.90;;;;;;5056733;28;20228;-74
2023/08/13 01:04:09;;;;;;;1.92;0.93;;;17.70;99.90;;;;;;5069390;28;20243;-73
2023/08/13 01:06:48;;;;;;;2.80;1.00;;;17.80;99.90;;;;;;5053905;28;20566;-75
2023/08/13 01:09:27;;;;;;;2.05;0.80;;;17.80;99.90;;;;;;5054308;28;20201;-78
2023/08/13 01:12:16;;;;;;;3.50;1.10;;;18.00;99.90;;;;;;5131336;27;20871;-77
2023/08/13 01:14:56;;;;;;;1.30;0.80;;;18.10;99.90;;;;;;5102488;28;20302;-77
2023/08/13 01:17:28;;;;;;;1.63;0.90;;;18.30;99.90;;;;;;5090669;28;20188;-82
2023/08/13 01:20:00;;;;;;;1.60;0.80;;;18.40;99.90;;;;;;5090856;28;20207;-76
2023/08/13 01:22:38;;;;;;;2.45;0.80;;;18.60;99.90;;;;;;5090619;28;20195;-84
2023/08/13 01:25:11;;;;;;;1.20;0.60;;;18.60;99.90;;;;;;5095345;28;20191;-77
2023/08/13 01:27:50;;;;;;;1.90;0.65;;;18.70;99.90;;;;;;5090392;28;20196;-83
2023/08/13 01:30:25;;;;;;;1.98;0.75;;;18.60;99.90;;;;;;5091536;28;20208;-74
2023/08/13 01:33:00;;;;;;;2.80;0.68;;;18.60;99.90;;;;;;5103056;28;20191;-73
2023/08/13 01:35:33;;;;;;;1.30;0.60;;;18.60;99.90;;;;;;5108879;28;20187;-73
2023/08/13 01:38:06;;;;;;;1.67;0.65;;;18.60;99.90;;;;;;5104899;28;20620;-74
2023/08/13 01:40:37;;;;;;;1.58;0.60;;;18.60;99.90;;;;;;5107151;28;20564;-73
2023/08/13 01:43:08;;;;;;;1.45;0.70;;;18.70;99.90;;;;;;5098132;28;20559;-72
2023/08/13 01:45:39;;;;;;;1.80;0.70;;;18.70;99.90;;;;;;5089652;28;20188;-73
2023/08/13 01:48:10;;;;;;;1.60;0.50;;;18.80;99.90;;;;;;5090103;28;20188;-73
2023/08/13 01:50:41;;;;;;;2.10;0.70;;;18.80;99.90;;;;;;5091925;28;20672;-74
2023/08/13 01:53:14;;;;;;;1.38;0.70;;;18.70;99.90;;;;;;5108428;28;20297;-74
2023/08/13 01:55:45;;;;;;;1.48;0.60;;;18.60;99.90;;;;;;5100481;28;20189;-74
2023/08/13 01:58:15;;;;;;;3.10;0.65;;;18.50;99.90;;;;;;5092180;28;20200;-73
2023/08/13 02:00:46;;;;;;;2.33;0.77;;;18.50;99.90;;;;;;5089732;28;20678;-73
2023/08/13 02:03:17;;;;;;;1.58;0.65;;;18.50;99.90;;;;;;5098375;28;20563;-74
2023/08/13 02:05:47;;;;;;;0.60;0.60;;;18.50;99.90;;;;;;5093697;28;20199;-74
2023/08/13 02:08:20;;;;;;;1.85;0.77;;;18.50;99.90;;;;;;5107001;28;20200;-73
2023/08/13 02:10:51;;;;;;;2.45;0.50;;;18.50;99.90;;;;;;5097018;28;20744;-74
2023/08/13 02:13:21;;;;;;;2.53;0.63;;;18.40;99.90;;;;;;5098068;28;20196;-73
2023/08/13 02:15:52;;;;;;;2.28;0.50;;;18.30;99.90;;;;;;5101439;28;20210;-74
2023/08/13 02:18:23;;;;;;;2.67;0.50;;;18.20;99.90;;;;;;5092779;28;20200;-73
2023/08/13 02:20:53;;;;;;;1.00;0.45;;;18.10;99.90;;;;;;5109612;28;20556;-74
2023/08/13 02:23:26;;;;;;;1.35;0.45;;;18.00;99.90;;;;;;5077206;28;20189;-74
2023/08/13 02:25:57;;;;;;;1.13;0.70;;;17.90;99.90;;;;;;5078524;28;20661;-72
2023/08/13 02:28:28;;;;;;;1.48;0.60;;;17.90;99.90;;;;;;5082613;28;20568;-73
2023/08/13 02:30:58;;;;;;;0.82;0.45;;;17.80;99.90;;;;;;5083532;28;20221;-70
2023/08/13 02:33:29;;;;;;;1.48;0.45;;;17.80;99.90;;;;;;5094228;28;20196;-71
2023/08/13 02:36:00;;;;;;;1.75;0.77;;;17.80;99.90;;;;;;5093100;28;20678;-69
2023/08/13 02:38:32;;;;;;;1.35;0.70;;;17.80;99.90;;;;;;5092433;28;20195;-70
2023/08/13 02:41:03;;;;;;;2.08;0.73;;;17.70;99.90;;;;;;5091591;28;20279;-70
2023/08/13 02:43:51;;;;;;;1.30;0.70;;;17.60;99.90;;;;;;5075402;28;20566;-70
2023/08/13 02:46:23;;;;;;;1.45;0.80;;;17.60;99.90;;;;;;5082041;28;20253;-70
2023/08/13 02:48:56;;;;;;;2.05;0.82;;;17.60;99.90;;;;;;5080283;28;20192;-71
2023/08/13 02:51:26;;;;;;;1.75;1.02;;;17.60;99.90;;;;;;5075147;28;20216;-76
2023/08/13 02:53:59;;;;;;;3.38;0.80;;;17.50;99.90;;;;;;5078924;28;20208;-75
2023/08/13 02:56:30;;;;;;;2.28;0.57;;;17.40;99.90;;;;;;5085623;28;20200;-76
2023/08/13 02:59:00;;;;;;;1.25;0.60;;;17.50;99.90;;;;;;5084615;28;20220;-76
2023/08/13 03:01:31;;;;;;;2.00;0.65;;;17.70;99.90;;;;;;5079473;28;20197;-75
2023/08/13 03:04:03;;;;;;;1.80;0.70;;;17.90;99.90;;;;;;5075292;28;20197;-74
2023/08/13 03:06:33;;;;;;;2.17;0.73;;;18.00;99.90;;;;;;5077462;28;20305;-73
2023/08/13 03:09:06;;;;;;;1.42;0.52;;;18.10;99.90;;;;;;5083759;28;20196;-70
2023/08/13 03:11:37;;;;;;;1.40;0.57;;;18.30;99.90;;;;;;5087608;28;20240;-71
2023/08/13 03:14:08;;;;;;;3.60;0.60;;;18.40;99.90;;;;;;5095111;28;20226;-71
2023/08/13 03:16:39;;;;;;;1.67;0.52;;;18.40;99.90;;;;;;5093693;28;20554;-71
2023/08/13 03:19:09;;;;;;;1.70;0.68;;;18.40;99.90;;;;;;5093882;28;20632;-72
2023/08/13 03:21:40;;;;;;;4.25;1.00;;;18.40;99.90;;;;;;5095027;28;20200;-71
2023/08/13 03:24:13;;;;;;;1.13;0.40;;;18.30;99.90;;;;;;5094914;28;20193;-71
2023/08/13 03:26:44;;;;;;;1.60;0.60;;;18.30;99.90;;;;;;5094565;28;20212;-70
2023/08/13 03:29:14;;;;;;;2.25;0.73;;;18.30;99.90;;;;;;5091984;28;20648;-71
2023/08/13 03:31:45;;;;;;;2.92;0.70;;;18.20;99.90;;;;;;5094331;28;20230;-69
2023/08/13 03:34:16;;;;;;;2.10;0.65;;;18.20;99.90;;;;;;5074441;28;20200;-70
2023/08/13 03:36:46;;;;;;;5.65;0.90;;;18.20;99.90;;;;;;5074305;28;20193;-70
2023/08/13 03:39:19;;;;;;;4.00;0.90;;;18.20;99.90;;;;;;5074338;28;20189;-71
2023/08/13 03:41:50;;;;;;;2.17;0.90;;;18.20;99.90;;;;;;5074225;28;20196;-71
2023/08/13 03:44:20;;;;;;;1.52;0.50;;;18.20;99.90;;;;;;5074221;28;20189;-70
2023/08/13 03:46:51;;;;;;;2.75;0.90;;;18.10;99.90;;;;;;5073986;28;20196;-71
2023/08/13 03:49:22;;;;;;;2.78;0.90;;;18.00;99.90;;;;;;5074125;28;20651;-70
2023/08/13 03:51:53;;;;;;;2.47;0.60;;;17.80;99.90;;;;;;5088647;28;20281;-70
2023/08/13 03:54:26;;;;;;;4.53;0.80;;;17.70;99.90;;;;;;5094140;28;20211;-71
2023/08/13 03:56:56;;;;;;;1.48;0.65;;;17.60;99.90;;;;;;5094205;28;20271;-70
2023/08/13 03:59:27;;;;;;;4.18;0.93;;;17.60;99.90;;;;;;5094241;28;20192;-70
2023/08/13 04:01:59;;;;;;;1.30;0.70;;;17.40;99.90;;;;;;5094120;28;20192;-69
2023/08/13 04:04:29;;;;;;;3.75;0.90;;;17.40;99.90;;;;;;5094076;28;20196;-70
2023/08/13 04:07:00;;;;;;;1.00;0.70;;;17.30;99.90;;;;;;5092844;28;20215;-70
2023/08/13 04:09:33;;;;;;;5.07;0.80;;;17.20;99.90;;;;;;5093625;28;20196;-70
2023/08/13 04:12:03;;;;;;;4.38;0.80;;;17.10;99.90;;;;;;5093932;28;20220;-70
2023/08/13 04:14:34;;;;;;;5.40;0.80;;;17.00;99.90;;;;;;5093982;28;20188;-70
2023/08/13 04:17:05;;;;;;;0.85;0.68;;;16.90;99.90;;;;;;5094097;28;20558;-70
2023/08/13 04:19:36;;;;;;;4.20;0.73;;;16.90;99.90;;;;;;5094170;28;20628;-72
2023/08/13 04:22:07;;;;;;;1.77;0.60;;;16.70;99.90;;;;;;5093796;28;20184;-73
2023/08/13 04:24:39;;;;;;;2.65;0.70;;;16.70;99.90;;;;;;5093349;28;20189;-74
2023/08/13 04:27:10;;;;;;;3.15;0.70;;;16.60;99.90;;;;;;5093722;28;20196;-73
2023/08/13 04:29:41;;;;;;;4.03;0.80;;;16.60;99.90;;;;;;5092273;28;20587;-74
2023/08/13 04:32:12;;;;;;;2.83;0.82;;;16.60;99.90;;;;;;5093561;28;20687;-74
2023/08/13 04:34:42;;;;;;;1.73;0.65;;;16.60;99.90;;;;;;5076567;28;20203;-73
2023/08/13 04:37:13;;;;;;;3.17;0.75;;;16.60;99.90;;;;;;5073373;28;20193;-73
2023/08/13 04:39:46;;;;;;;3.78;0.75;;;16.60;99.90;;;;;;5073061;28;20620;-72
2023/08/13 04:42:16;;;;;;;2.72;0.93;;;16.50;99.90;;;;;;5073310;28;20645;-74
2023/08/13 04:44:47;;;;;;;4.75;0.90;;;16.50;99.90;;;;;;5073075;28;20190;-74
2023/08/13 04:47:18;;;;;;;2.22;0.90;;;16.50;99.90;;;;;;5073262;28;20196;-74
2023/08/13 04:49:49;;;;;;;4.95;0.82;;;16.40;99.90;;;;;;5073237;28;20231;-74
2023/08/13 04:52:19;;;;;;;3.08;0.93;;;16.50;99.90;;;;;;5073179;28;20220;-74
2023/08/13 04:54:52;;;;;;;3.08;0.90;;;16.50;99.90;;;;;;5073047;28;20196;-74
2023/08/13 04:57:23;;;;;;;5.57;0.98;;;16.50;99.90;;;;;;5073157;28;20189;-73
2023/08/13 04:59:53;;;;;;;5.82;0.90;;;16.50;99.90;;;;;;5072991;28;20189;-74
2023/08/13 05:02:24;;;;;;;3.53;0.90;;;16.40;99.90;;;;;;5073062;28;20189;-74
2023/08/13 05:04:55;;;;;;;2.13;1.00;;;16.20;99.90;;;;;;5073055;28;20641;-74
2023/08/13 05:07:26;;;;;;;6.28;1.00;;;16.20;99.90;;;;;;5072824;28;20193;-74
2023/08/13 05:09:59;;;;;;;2.15;0.73;;;16.10;99.90;;;;;;5072971;28;20196;-75
2023/08/13 05:12:29;;;;;;;4.05;1.00;;;16.00;99.90;;;;;;5073018;28;20221;-75
2023/08/13 05:15:00;;;;;;;4.70;1.08;;;15.90;99.90;;;;;;5073139;28;20188;-74
2023/08/13 05:17:31;;;;;;;3.65;0.95;;;15.90;99.90;;;;;;5072808;28;20544;-73
2023/08/13 05:20:02;;;;;;;2.80;1.10;;;15.80;99.90;;;;;;5072786;28;20208;-74
2023/08/13 05:22:33;;;;;;;2.33;0.90;;;15.80;99.90;;;;;;5072588;28;20189;-74
2023/08/13 05:25:05;;;;;;;3.58;1.05;;;15.70;99.90;;;;;;5072648;28;20232;-74
2023/08/13 05:27:36;;;;;;;4.72;1.00;;;15.70;99.90;;;;;;5072999;28;20197;-74
2023/08/13 05:30:08;;;;;;;3.88;0.90;;;15.70;99.90;;;;;;5072804;28;20730;-75
2023/08/13 05:32:39;;;;;;;3.30;0.93;;;15.70;99.90;;;;;;5073662;28;20217;-74
2023/08/13 05:35:10;;;;;;;3.65;1.05;;;15.80;99.90;;;;;;5092636;28;20196;-75
2023/08/13 05:37:41;;;;;;;3.30;1.00;;;15.80;99.90;;;;;;5080962;28;20240;-74
2023/08/13 05:40:14;;;;;;;3.13;0.90;;;15.80;99.90;;;;;;5077717;28;20640;-76
2023/08/13 05:42:45;;;;;;;3.47;0.90;;;15.80;99.90;;;;;;5075739;28;20197;-70
2023/08/13 05:45:16;;;;;;;3.17;0.93;;;15.80;99.90;;;;;;5085324;28;20192;-69
2023/08/13 05:47:47;;;;;;;1.92;0.90;;;15.80;99.90;;;;;;5092932;28;20196;-70
2023/08/13 05:50:17;;;;;;;2.00;0.75;;;15.80;99.90;;;;;;5090160;28;20201;-70
2023/08/13 05:52:48;;;;;;;3.40;0.90;;;15.80;99.90;;;;;;5076600;28;20209;-71
2023/08/13 05:55:21;;;;;;;2.60;0.90;;;15.80;99.90;;;;;;5071466;28;20197;-72
2023/08/13 05:57:52;;;;;;;4.13;1.23;;;15.70;99.90;;;;;;5079287;28;20624;-74
2023/08/13 06:00:23;;;;;;;4.38;0.90;;;15.70;99.90;;;;;;5082791;28;20552;-70
2023/08/13 06:02:53;;;;;;;4.20;1.05;;;15.60;99.90;;;;;;5076117;28;20189;-70
2023/08/13 06:05:24;;;;;;;6.05;1.15;;;15.60;99.90;;;;;;5078447;28;20212;-69
2023/08/13 06:07:55;;;;;;;5.07;1.30;;;15.60;99.90;;;;;;5084045;28;20196;-70
2023/08/13 06:10:27;;;;;;;7.82;0.95;;;15.50;99.90;;;;;;5082770;28;20231;-70
2023/08/13 06:12:58;;;;;;;4.05;1.30;;;15.50;99.90;;;;;;5088623;28;20234;-69
2023/08/13 06:15:29;;;;;;;5.05;1.25;;;15.40;99.90;;;;;;5096325;28;20548;-70
2023/08/13 06:18:00;;;;;;;5.65;1.27;;;15.40;99.90;;;;;;5079484;28;20640;-70
2023/08/13 06:20:31;;;;;;;3.95;1.15;;;15.30;99.90;;;;;;5082767;28;20199;-70
2023/08/13 06:23:01;;;;;;;4.70;0.80;;;15.30;99.90;;;;;;5096280;28;20597;-71
2023/08/13 06:25:34;;;;;;;5.75;1.10;;;15.30;99.90;;;;;;5081263;28;20216;-71
2023/08/13 06:28:05;;;;;;;4.60;1.20;;;15.30;99.90;;;;;;5080039;28;20656;-71
2023/08/13 06:30:36;;;;;;;2.42;0.95;;;15.20;99.90;;;;;;5076317;28;20192;-72
2023/08/13 06:33:06;;;;;;;4.07;0.90;;;15.20;99.90;;;;;;5076977;28;20213;-72
2023/08/13 06:35:37;;;;;;;4.60;0.85;;;15.20;99.90;;;;;;5075591;28;20185;-70
2023/08/13 06:38:08;;;;;;;4.43;1.10;;;15.20;99.90;;;;;;5091005;28;20196;-73
2023/08/13 06:40:40;;;;;;;2.25;0.98;;;15.20;99.90;;;;;;5095092;28;20202;-69
2023/08/13 06:43:11;;;;;;;2.58;0.90;;;15.10;99.90;;;;;;5084809;28;20198;-72
2023/08/13 06:45:42;;;;;;;4.53;1.15;;;15.10;99.90;;;;;;5088822;28;20192;-72
2023/08/13 06:48:13;;;;;;;4.50;1.20;;;15.10;99.90;;;;;;5081162;28;20640;-72
2023/08/13 06:50:44;;;;;;;4.05;1.00;;;15.10;99.90;;;;;;5075282;28;20189;-73
2023/08/13 06:53:14;;;;;;;4.35;1.00;;;15.10;99.90;;;;;;5074677;28;20216;-71
2023/08/13 06:55:47;;;;;;;2.20;0.90;;;15.10;99.90;;;;;;5089050;28;20189;-73
2023/08/13 06:58:18;;;;;;;3.05;1.08;;;15.10;99.90;;;;;;5078263;28;20683;-71
2023/08/13 07:00:49;;;;;;;3.60;0.80;;;15.10;99.90;;;;;;5086025;28;20195;-75
2023/08/13 07:03:20;;;;;;;3.33;0.88;;;15.00;99.90;;;;;;5089887;28;20679;-72
2023/08/13 07:05:51;;;;;;;4.05;0.77;;;15.00;99.90;;;;;;5084044;28;20205;-72
2023/08/13 07:08:22;;;;;;;2.90;0.90;;;15.00;99.90;;;;;;5079419;28;20553;-72
2023/08/13 07:10:55;;;;;;;5.30;1.10;;;15.00;99.90;;;;;;5074984;28;20273;-74
2023/08/13 07:13:26;;;;;;;3.15;1.02;;;15.00;99.90;;;;;;5074022;28;20212;-71
2023/08/13 07:15:57;;;;;;;3.20;0.98;;;15.00;99.90;;;;;;5074603;28;20193;-71
2023/08/13 07:18:27;;;;;;;6.60;0.95;;;15.00;99.90;;;;;;5074558;28;20195;-71
2023/08/13 07:20:58;;;;;;;6.22;1.48;;;15.00;99.90;;;;;;5082485;28;20199;-71
2023/08/13 07:23:29;;;;;;;3.85;1.23;;;14.90;99.90;;;;;;5074609;28;20204;-71
2023/08/13 07:26:02;;;;;;;4.53;1.17;;;14.90;99.90;;;;;;5077362;28;20224;-71
2023/08/13 07:28:34;;;;;;;3.85;1.13;;;15.00;99.90;;;;;;5075130;28;20202;-71
2023/08/13 07:31:06;;;;;;;6.65;1.30;;;14.90;99.90;;;;;;5074668;28;20205;-71
2023/08/13 07:33:37;;;;;;;4.40;1.30;;;14.90;99.90;;;;;;5074146;28;20225;-71
2023/08/13 07:36:08;;;;;;;3.40;1.17;;;14.90;99.90;;;;;;5074097;28;20199;-71
2023/08/13 07:38:38;;;;;;;3.95;1.30;;;14.90;99.90;;;;;;5076716;28;20675;-71
2023/08/13 07:41:11;;;;;;;5.03;1.35;;;14.90;99.90;;;;;;5074746;28;20656;-69
2023/08/13 07:43:42;;;;;;;5.18;1.38;;;14.90;99.90;;;;;;5074715;28;20214;-69
2023/08/13 07:46:13;;;;;;;3.58;1.02;;;14.90;99.90;;;;;;5082653;28;20568;-69
2023/08/13 07:48:44;;;;;;;5.07;1.58;;;14.90;99.90;;;;;;5074548;28;20193;-71
2023/08/13 07:51:15;;;;;;;3.33;1.45;;;14.90;99.90;;;;;;5074147;28;20220;-74
2023/08/13 07:53:45;;;;;;;6.75;1.40;;;14.80;99.90;;;;;;5074737;28;20224;-71
2023/08/13 07:56:18;;;;;;;3.55;1.23;;;14.80;99.90;;;;;;5083912;28;20201;-71
2023/08/13 07:58:49;;;;;;;4.15;1.20;;;14.80;99.90;;;;;;5074393;28;20204;-73
2023/08/13 08:01:20;;;;;;;4.85;1.20;;;14.80;99.90;;;;;;5073505;28;20189;-70
2023/08/13 08:03:50;;;;;;;5.18;1.10;;;14.80;99.90;;;;;;5077013;28;20218;-70
2023/08/13 08:06:21;;;;;;;7.40;1.33;;;14.80;99.90;;;;;;5073636;28;20192;-70
2023/08/13 08:08:52;;;;;;;7.22;1.60;;;14.80;99.90;;;;;;5091454;28;20237;-71
2023/08/13 08:11:25;;;;;;;5.45;1.33;;;14.80;99.90;;;;;;5093326;28;20223;-70
2023/08/13 08:13:56;;;;;;;3.40;1.10;;;14.70;99.90;;;;;;5082400;28;20219;-70
2023/08/13 08:16:26;;;;;;;6.32;1.45;;;14.70;99.90;;;;;;5073298;28;20557;-71
2023/08/13 08:18:57;;;;;;;7.43;1.55;;;14.70;99.90;;;;;;5081934;28;20199;-71
2023/08/13 08:21:28;;;;;;;5.00;1.45;;;14.60;99.90;;;;;;5093262;28;20194;-74
2023/08/13 08:24:00;;;;;;;5.53;1.20;;;14.60;99.90;;;;;;5092244;28;20188;-72
2023/08/13 08:26:33;;;;;;;3.03;1.00;;;14.60;99.90;;;;;;5088046;28;20252;-71
2023/08/13 08:29:04;;;;;;;4.53;1.33;;;14.60;99.90;;;;;;5077878;28;20648;-70
2023/08/13 08:31:34;;;;;;;4.75;1.10;;;14.60;99.90;;;;;;5093314;28;20185;-70
2023/08/13 08:34:05;;;;;;;4.80;1.35;;;14.60;99.90;;;;;;5093190;28;20216;-70
2023/08/13 08:36:36;;;;;;;5.85;1.23;;;14.50;99.90;;;;;;5073628;28;20208;-72
2023/08/13 08:39:07;;;;;;;4.57;1.20;;;14.60;99.90;;;;;;5084077;28;20231;-74
2023/08/13 08:41:41;;;;;;;5.53;1.20;;;14.50;99.90;;;;;;5077817;28;20668;-73
2023/08/13 08:44:16;;;;;;;5.32;1.48;;;14.60;99.90;;;;;;5074859;28;20203;-73
2023/08/13 08:46:47;;;;;;;5.18;1.50;;;14.60;99.90;;;;;;5077423;28;20192;-74
2023/08/13 08:49:21;;;;;;;7.60;1.88;;;14.60;99.90;;;;;;5073796;28;20197;-73
2023/08/13 08:51:52;;;;;;;5.30;1.80;;;14.60;99.90;;;;;;5073350;28;20280;-74
2023/08/13 08:54:23;;;;;;;6.47;1.90;;;14.60;99.90;;;;;;5076999;28;20573;-73
2023/08/13 08:56:56;;;;;;;6.15;1.75;;;14.60;99.90;;;;;;5080736;28;20200;-73
2023/08/13 08:59:26;;;;;;;6.25;1.70;;;14.60;99.90;;;;;;5087277;28;20193;-73
2023/08/13 09:01:57;;;;;;;3.80;1.25;;;14.60;99.90;;;;;;5072192;28;20193;-73
2023/08/13 09:04:28;;;;;;;6.63;1.65;;;14.60;99.90;;;;;;5072852;28;20653;-74
2023/08/13 09:07:00;;;;;;;4.00;1.48;;;14.60;99.90;;;;;;5076684;28;20208;-73
2023/08/13 09:09:32;;;;;;;4.40;1.58;;;14.60;99.90;;;;;;5072585;28;20193;-74
2023/08/13 09:12:05;;;;;;;5.60;1.65;;;14.60;99.90;;;;;;5080929;28;20236;-73
2023/08/13 09:14:37;;;;;;;3.38;1.20;;;14.60;99.90;;;;;;5084091;28;20214;-73
2023/08/13 09:17:07;;;;;;;6.38;1.20;;;14.60;99.90;;;;;;5071433;28;20208;-72
2023/08/13 09:19:38;;;;;;;4.97;1.30;;;14.60;99.90;;;;;;5081856;28;20664;-74
2023/08/13 09:22:09;;;;;;;3.00;1.20;;;14.60;99.90;;;;;;5072962;28;20207;-73
2023/08/13 09:24:41;;;;;;;8.00;1.40;;;14.60;99.90;;;;;;5074741;28;20221;-73
2023/08/13 09:27:14;;;;;;;4.65;1.33;;;14.60;99.90;;;;;;5075724;28;20192;-73
2023/08/13 09:29:45;;;;;;;4.78;1.48;;;14.60;99.90;;;;;;5085735;28;20195;-72
2023/08/13 09:32:15;;;;;;;3.05;1.10;;;14.60;99.90;;;;;;5075298;28;20208;-72
2023/08/13 09:34:47;;;;;;;4.65;1.33;;;14.60;99.90;;;;;;5079305;28;20678;-74
2023/08/13 09:37:19;;;;;;;6.70;1.58;;;14.60;99.90;;;;;;5080071;28;20200;-72
2023/08/13 09:39:50;;;;;;;4.40;1.00;;;14.60;99.90;;;;;;5080692;28;20192;-73
2023/08/13 09:42:25;;;;;;;2.53;0.90;;;14.60;99.90;;;;;;5075727;28;20201;-71
2023/08/13 09:44:56;;;;;;;4.22;1.08;;;14.60;99.90;;;;;;5085763;28;20651;-71
2023/08/13 09:47:30;;;;;;;3.92;1.13;;;14.60;99.90;;;;;;5082004;28;20220;-71
2023/08/13 09:50:03;;;;;;;6.07;1.20;;;14.60;99.90;;;;;;5076801;28;20215;-70
2023/08/13 09:52:36;;;;;;;5.03;1.23;;;14.60;99.90;;;;;;5080335;28;20197;-70
2023/08/13 09:55:12;;;;;;;5.57;1.50;;;14.60;99.90;;;;;;5078731;28;20197;-72
2023/08/13 09:57:45;;;;;;;3.20;0.80;;;14.60;99.90;;;;;;5083603;28;20307;-70
2023/08/13 10:00:17;;;;;;;4.85;1.10;;;14.60;99.90;;;;;;5077547;28;20660;-71
2023/08/13 10:02:48;;;;;;;5.78;1.30;;;14.60;99.90;;;;;;5075535;28;20570;-71
2023/08/13 10:05:19;;;;;;;5.88;1.13;;;14.60;99.90;;;;;;5078030;28;20808;-71
2023/08/13 10:07:50;;;;;;;3.20;1.05;;;14.60;99.90;;;;;;5075987;28;20295;-70
2023/08/13 10:10:22;;;;;;;3.92;1.23;;;14.60;99.90;;;;;;5081448;28;20236;-70
2023/08/13 10:12:55;;;;;;;3.38;1.08;;;14.60;99.90;;;;;;5087487;28;20232;-71
2023/08/13 10:15:26;;;;;;;5.30;1.52;;;14.60;99.90;;;;;;5077102;28;20204;-71
2023/08/13 10:17:57;;;;;;;5.38;1.20;;;14.60;99.90;;;;;;5079588;28;20659;-70
2023/08/13 10:20:28;;;;;;;5.18;1.52;;;14.70;99.90;;;;;;5079171;28;20199;-70
2023/08/13 10:23:01;;;;;;;7.88;1.45;;;14.70;99.90;;;;;;5081686;28;20196;-70
2023/08/13 10:25:35;;;;;;;4.30;1.23;;;14.70;99.90;;;;;;5076082;28;20229;-70
2023/08/13 10:28:24;;;;;;;4.32;1.38;;;14.70;99.90;;;;;;5079890;28;20213;-72
2023/08/13 10:31:38;;;;;;;9.75;1.35;;;14.70;99.90;;;;;;5080645;28;20197;-70
2023/08/13 10:34:14;;;;;;;7.13;1.88;;;14.70;99.90;;;;;;5064207;28;20741;-70
2023/08/13 10:36:54;;;;;;;4.80;1.30;;;14.70;99.90;;;;;;5083685;28;20283;-69
2023/08/13 10:39:40;;;;;;;5.50;1.40;;;14.60;99.90;;;;;;5089904;28;20203;-70
2023/08/13 10:42:42;;;;;;;4.55;1.25;;;14.60;99.90;;;;;;5094472;28;20192;-70
2023/08/13 10:45:18;;;;;;;4.03;1.27;;;14.60;99.90;;;;;;5081381;28;20296;-72
2023/08/13 10:47:56;;;;;;;6.32;1.45;;;14.60;99.90;;;;;;5075228;28;20667;-71
2023/08/13 10:50:30;;;;;;;6.78;1.73;;;14.60;99.90;;;;;;5074975;28;20192;-70
2023/08/13 10:53:12;;;;;;;5.35;1.67;;;14.60;99.90;;;;;;5081905;28;20570;-70
2023/08/13 10:55:43;;;;;;;4.95;1.27;;;14.70;99.90;;;;;;5075854;28;23142;-73
2023/08/13 10:58:26;;;;;;;6.15;1.30;;;14.70;99.90;;;;;;5080939;28;20201;-70
2023/08/13 11:01:12;;;;;;;5.78;1.48;;;14.70;99.90;;;;;;5079854;28;20203;-70
2023/08/13 11:03:48;;;;;;;5.75;1.38;;;14.70;99.90;;;;;;5075018;28;20200;-71
2023/08/13 11:06:20;;;;;;;4.82;1.45;;;14.70;99.90;;;;;;5074868;28;20644;-69
2023/08/13 11:08:51;;;;;;;7.05;1.58;;;14.70;99.90;;;;;;5074924;28;20189;-70
2023/08/13 11:11:22;;;;;;;5.20;1.20;;;14.70;99.90;;;;;;5078862;28;20236;-70
2023/08/13 11:13:53;;;;;;;2.20;1.15;;;14.80;99.90;;;;;;5082869;28;20217;-71
2023/08/13 11:16:30;;;;;;;4.45;1.88;;;14.70;99.90;;;;;;5074698;28;20205;-70
2023/08/13 11:19:04;;;;;;;2.83;1.17;;;14.70;99.90;;;;;;5074710;28;20196;-70
2023/08/13 11:21:36;;;;;;;4.10;1.33;;;14.70;99.90;;;;;;5075792;28;20189;-70
2023/08/13 11:24:07;;;;;;;4.25;1.02;;;14.70;99.90;;;;;;5080384;28;20227;-69
2023/08/13 11:26:38;;;;;;;3.63;1.08;;;14.70;99.90;;;;;;5078644;28;20203;-71
2023/08/13 11:29:10;;;;;;;4.50;1.30;;;14.70;99.90;;;;;;5074272;28;20284;-73
2023/08/13 11:31:47;;;;;;;5.35;1.20;;;14.70;99.90;;;;;;5075420;28;20193;-73
2023/08/13 11:34:19;;;;;;;5.70;1.27;;;14.70;99.90;;;;;;5083933;28;20213;-71
2023/08/13 11:36:52;;;;;;;4.90;1.15;;;14.70;99.90;;;;;;5090126;28;20615;-73
2023/08/13 11:39:22;;;;;;;3.53;1.10;;;14.70;99.90;;;;;;5071237;28;20196;-72
2023/08/13 11:41:54;;;;;;;2.88;1.10;;;14.70;99.90;;;;;;5081393;28;20216;-73
2023/08/13 11:44:25;;;;;;;4.70;1.42;;;14.80;99.90;;;;;;5091484;28;20204;-73
2023/08/13 11:47:04;;;;;;;4.13;1.50;;;14.70;99.90;;;;;;5090523;28;20812;-73
2023/08/13 11:49:42;;;;;;;6.53;1.60;;;14.70;99.90;;;;;;5084088;28;20663;-73
2023/08/13 11:52:14;;;;;;;4.95;1.50;;;14.70;99.90;;;;;;5074074;28;20193;-73
2023/08/13 11:54:45;;;;;;;6.50;1.60;;;14.70;99.90;;;;;;5073392;28;20667;-73
2023/08/13 11:57:16;;;;;;;4.30;1.63;;;14.70;99.90;;;;;;5086518;28;20203;-72
2023/08/13 11:59:48;;;;;;;5.47;1.40;;;14.70;99.90;;;;;;5094355;28;20195;-72
2023/08/13 12:02:21;;;;;;;6.80;1.40;;;14.70;99.90;;;;;;5078441;28;20188;-73
2023/08/13 12:04:52;;;;;;;4.00;1.52;;;14.60;99.90;;;;;;5074066;28;20189;-72
2023/08/13 12:07:23;;;;;;;4.28;1.30;;;14.60;99.90;;;;;;5073733;28;20207;-73
2023/08/13 12:09:54;;;;;;;7.18;1.45;;;14.60;99.90;;;;;;5073622;28;20193;-70
2023/08/13 12:12:24;;;;;;;4.47;1.52;;;14.60;99.90;;;;;;5074406;28;20211;-70
2023/08/13 12:14:55;;;;;;;11.05;2.15;;;14.60;99.90;;;;;;5080946;28;20221;-68
2023/08/13 12:17:28;;;;;;;4.60;1.70;;;14.60;99.90;;;;;;5073620;28;20188;-69
2023/08/13 12:19:58;;;;;;;5.07;1.90;;;14.50;99.90;;;;;;5085224;28;20204;-68
2023/08/13 12:22:29;;;;;;;5.25;2.20;;;14.50;99.90;;;;;;5073350;28;20189;-69
2023/08/13 12:25:00;;;;;;;5.82;1.98;;;14.50;99.90;;;;;;5084426;28;20220;-68
2023/08/13 12:27:30;;;;;;;8.82;2.58;;;14.40;99.90;;;;;;5093996;28;20192;-69
2023/08/13 12:30:01;;;;;;;7.13;2.58;;;14.40;99.90;;;;;;5093871;28;20184;-69
2023/08/13 12:32:34;;;;;;;9.25;2.30;;;14.30;99.90;;;;;;5086703;28;20199;-69
2023/08/13 12:35:06;;;;;;;4.82;1.80;;;14.20;99.90;;;;;;5081132;28;20224;-69
2023/08/13 12:37:39;;;;;;;7.32;2.00;;;14.20;99.90;;;;;;5079212;28;20199;-69
2023/08/13 12:40:11;;;;;;;4.07;2.10;;;14.10;99.90;;;;;;5082269;28;20201;-70
2023/08/13 12:42:42;;;;;;;7.32;2.22;;;14.00;99.90;;;;;;5072800;28;20243;-73
2023/08/13 12:45:13;;;;;;;8.82;2.80;;;14.00;99.90;;;;;;5074273;28;20209;-73
2023/08/13 12:47:45;;;;;;;5.10;2.30;;;14.00;99.90;;;;;;5090260;28;20189;-71
2023/08/13 12:50:16;;;;;;;3.50;2.20;;;14.00;99.90;;;;;;5072720;28;20241;-70
2023/08/13 12:52:47;;;;;;;6.65;2.03;;;14.00;99.90;;;;;;5091053;28;20193;-70
2023/08/13 12:55:18;;;;;;;6.85;2.20;;;13.90;99.90;;;;;;5078400;28;20244;-73
2023/08/13 12:57:48;;;;;;;4.57;1.92;;;13.90;99.90;;;;;;5085305;28;20237;-73
2023/08/13 13:00:19;;;;;;;8.20;2.30;;;13.90;99.90;;;;;;5089460;28;20196;-72
2023/08/13 13:02:52;;;;;;;9.18;2.10;;;13.90;99.90;;;;;;5084064;28;20186;-72
2023/08/13 13:05:23;;;;;;;7.07;2.20;;;13.90;99.90;;;;;;5077104;28;20204;-73
2023/08/13 13:07:55;;;;;;;7.10;2.40;;;13.80;99.90;;;;;;5077168;28;20197;-71
2023/08/13 13:10:26;;;;;;;7.95;2.30;;;13.80;99.90;;;;;;5084064;28;20289;-73